Time;durP1;ratioP1;P1;durP2;ratioP2;P2;SDS_P1;SDS_P2;PMS_P1;PMS_P2;Temp;Humidity;BMP_temperature;BMP_pressure;BME280_temperature;BME280_humidity;BME280_pressure;Samples;Min_cycle;Max_cycle;Signal;HPM_P1;HPM_P2
2022/03/25 00:00:25;;;;;;;128.75;54.03;;;3.70;99.90;;;;;;4990656;28;20026;-53
2022/03/25 00:02:52;;;;;;;117.55;50.53;;;3.70;99.90;;;;;;4990537;28;20041;-50
2022/03/25 00:05:18;;;;;;;118.43;52.57;;;3.50;99.90;;;;;;4990622;28;20026;-52
2022/03/25 00:07:43;;;;;;;118.18;51.78;;;3.30;99.90;;;;;;4990506;28;20281;-51
2022/03/25 00:10:09;;;;;;;123.50;53.47;;;3.40;99.90;;;;;;4989965;28;20042;-51
2022/03/25 00:12:35;;;;;;;137.73;58.75;;;3.50;99.90;;;;;;4990798;28;20031;-52
2022/03/25 00:15:01;;;;;;;173.95;67.95;;;3.30;99.90;;;;;;4991134;28;20133;-52
2022/03/25 00:17:27;;;;;;;170.85;72.53;;;3.10;99.90;;;;;;4990210;28;20109;-51
2022/03/25 00:19:53;;;;;;;164.68;68.25;;;3.10;99.90;;;;;;4990372;28;20180;-51
2022/03/25 00:22:20;;;;;;;176.38;72.85;;;3.30;99.90;;;;;;4972589;28;20026;-51
2022/03/25 00:24:45;;;;;;;160.90;68.03;;;3.30;99.90;;;;;;4993427;28;20029;-52
2022/03/25 00:27:11;;;;;;;167.43;68.55;;;3.30;99.90;;;;;;5009257;28;20045;-52
2022/03/25 00:29:37;;;;;;;182.10;70.88;;;3.10;99.90;;;;;;5009852;28;20034;-50
2022/03/25 00:32:03;;;;;;;168.43;69.45;;;3.10;99.90;;;;;;5009412;28;20026;-51
2022/03/25 00:34:30;;;;;;;169.13;68.53;;;3.10;99.90;;;;;;5009562;28;20066;-50
2022/03/25 00:36:55;;;;;;;150.57;63.50;;;3.20;99.90;;;;;;5009428;28;20058;-50
2022/03/25 00:39:21;;;;;;;161.02;68.03;;;3.20;99.90;;;;;;5009576;28;20056;-51
2022/03/25 00:41:47;;;;;;;173.85;69.80;;;3.20;99.90;;;;;;5009245;28;20116;-50
2022/03/25 00:44:13;;;;;;;167.35;68.20;;;3.10;99.90;;;;;;5009808;28;20029;-53
2022/03/25 00:46:40;;;;;;;169.82;67.22;;;3.00;99.90;;;;;;5008474;28;20462;-53
2022/03/25 00:49:05;;;;;;;160.38;65.97;;;3.00;99.90;;;;;;5009198;28;20042;-52
2022/03/25 00:51:31;;;;;;;152.25;64.38;;;2.90;99.90;;;;;;5009006;28;20084;-51
2022/03/25 00:53:57;;;;;;;156.52;62.72;;;3.00;99.90;;;;;;5009535;28;20060;-53
2022/03/25 00:56:24;;;;;;;148.30;61.78;;;2.80;99.90;;;;;;5002827;28;20450;-51
2022/03/25 00:58:50;;;;;;;151.95;64.90;;;2.90;99.90;;;;;;4989579;28;20026;-51
2022/03/25 01:01:16;;;;;;;151.13;63.47;;;2.90;99.90;;;;;;4989402;28;20027;-51
2022/03/25 01:03:44;;;;;;;156.82;63.08;;;3.00;99.90;;;;;;4989203;28;20030;-53
2022/03/25 01:06:10;;;;;;;139.20;61.00;;;3.00;99.90;;;;;;4989372;28;20019;-51
2022/03/25 01:08:36;;;;;;;149.73;64.32;;;3.00;99.90;;;;;;4989137;28;20498;-53
2022/03/25 01:11:04;;;;;;;154.07;68.95;;;3.00;99.90;;;;;;4989322;28;20089;-51
2022/03/25 01:13:33;;;;;;;139.07;61.03;;;3.00;99.90;;;;;;4979920;28;20030;-53
2022/03/25 01:16:01;;;;;;;142.10;61.25;;;3.00;99.90;;;;;;4993534;28;20061;-52
2022/03/25 01:18:26;;;;;;;;;;;3.00;99.90;;;;;;4989968;28;20077;-53
2022/03/25 01:20:52;;;;;;;149.15;63.53;;;2.80;99.90;;;;;;5004854;28;19905;-52
2022/03/25 01:23:17;;;;;;;132.98;59.22;;;2.80;99.90;;;;;;4991024;28;20026;-52
2022/03/25 01:25:43;;;;;;;142.38;59.70;;;2.80;99.90;;;;;;5008856;28;20049;-53
2022/03/25 01:28:09;;;;;;;134.75;58.92;;;2.70;99.90;;;;;;5008623;28;20045;-53
2022/03/25 01:30:35;;;;;;;123.72;56.72;;;2.70;99.90;;;;;;5009026;28;20022;-52
2022/03/25 01:33:02;;;;;;;123.57;54.78;;;2.60;99.90;;;;;;4993329;28;20461;-52
2022/03/25 01:35:28;;;;;;;125.43;52.25;;;2.70;99.90;;;;;;4989333;28;20382;-51
2022/03/25 01:37:55;;;;;;;126.35;54.75;;;2.60;99.90;;;;;;4988904;28;20061;-50
2022/03/25 01:40:21;;;;;;;127.47;55.95;;;2.50;99.90;;;;;;4989430;28;20050;-50
2022/03/25 01:42:47;;;;;;;124.43;54.80;;;2.30;99.90;;;;;;4988818;28;20149;-52
2022/03/25 01:45:12;;;;;;;123.82;55.38;;;2.40;99.90;;;;;;4989281;28;20113;-51
2022/03/25 01:47:39;;;;;;;128.25;55.90;;;2.50;99.90;;;;;;4988792;28;20043;-50
2022/03/25 01:50:17;;;;;;;116.65;52.92;;;2.40;99.90;;;;;;4989059;28;20038;-51
2022/03/25 01:52:44;;;;;;;113.35;53.47;;;2.40;99.90;;;;;;4988877;28;20037;-51
2022/03/25 01:55:20;;;;;;;112.93;52.00;;;2.30;99.90;;;;;;4971459;28;20704;-52
2022/03/25 01:57:46;;;;;;;115.20;50.67;;;2.30;99.90;;;;;;4987547;28;20097;-51
2022/03/25 02:00:17;;;;;;;123.10;54.35;;;2.30;99.90;;;;;;4988955;28;20512;-50
2022/03/25 02:02:43;;;;;;;116.68;49.90;;;2.30;99.90;;;;;;4989052;28;20034;-51
2022/03/25 02:05:10;;;;;;;117.32;50.13;;;2.30;99.90;;;;;;4989324;28;20468;-51
2022/03/25 02:07:36;;;;;;;112.50;53.55;;;2.30;99.90;;;;;;4988353;28;20492;-51
2022/03/25 02:10:02;;;;;;;124.57;53.28;;;2.30;99.90;;;;;;5008007;28;20057;-52
2022/03/25 02:12:28;;;;;;;114.27;52.10;;;2.30;99.90;;;;;;4990557;28;20388;-52
2022/03/25 02:14:57;;;;;;;121.63;55.42;;;2.20;99.90;;;;;;5008396;28;20744;-51
2022/03/25 02:17:23;;;;;;;132.93;59.17;;;2.20;99.90;;;;;;5007941;28;20037;-52
2022/03/25 02:19:49;;;;;;;120.10;54.43;;;2.00;99.90;;;;;;5008266;28;20029;-52
2022/03/25 02:22:15;;;;;;;131.90;58.72;;;1.90;99.90;;;;;;5008271;28;20081;-52
2022/03/25 02:24:41;;;;;;;133.45;60.90;;;1.80;99.90;;;;;;5008633;28;20686;-52
2022/03/25 02:27:08;;;;;;;136.43;59.95;;;1.80;99.90;;;;;;5007806;28;20037;-52
2022/03/25 02:29:33;;;;;;;127.45;54.67;;;1.80;99.90;;;;;;5008267;28;20064;-52
2022/03/25 02:31:59;;;;;;;129.57;55.20;;;1.90;99.90;;;;;;5007753;28;20038;-51
2022/03/25 02:34:25;;;;;;;114.80;53.05;;;2.00;99.90;;;;;;5008031;28;20056;-53
2022/03/25 02:36:51;;;;;;;120.13;55.15;;;1.90;99.90;;;;;;5008164;28;20026;-53
2022/03/25 02:39:18;;;;;;;129.65;55.15;;;1.80;99.90;;;;;;5008242;28;20142;-52
2022/03/25 02:41:44;;;;;;;123.07;52.63;;;1.90;99.90;;;;;;5007900;28;20033;-52
2022/03/25 02:44:11;;;;;;;119.50;55.13;;;1.90;99.90;;;;;;5008402;28;20109;-50
2022/03/25 02:46:38;;;;;;;122.78;53.30;;;1.90;99.90;;;;;;4990302;28;20104;-56
2022/03/25 02:49:04;;;;;;;133.85;53.92;;;1.80;99.90;;;;;;5008257;28;20125;-51
2022/03/25 02:51:30;;;;;;;115.95;51.90;;;1.90;99.90;;;;;;5007872;28;20172;-51
2022/03/25 02:53:56;;;;;;;110.25;50.60;;;1.80;99.90;;;;;;5008508;28;20053;-53
2022/03/25 02:56:24;;;;;;;115.30;52.40;;;1.60;99.90;;;;;;5002052;28;20482;-50
2022/03/25 02:58:50;;;;;;;121.28;53.30;;;1.70;99.90;;;;;;4988443;28;20421;-50
2022/03/25 03:01:16;;;;;;;125.20;52.22;;;1.70;99.90;;;;;;4988271;28;20030;-53
2022/03/25 03:03:41;;;;;;;118.03;52.97;;;1.80;99.90;;;;;;4988175;28;20037;-53
2022/03/25 03:06:07;;;;;;;122.50;52.50;;;1.70;99.90;;;;;;4988366;28;20027;-52
2022/03/25 03:08:35;;;;;;;129.00;53.50;;;1.70;99.90;;;;;;4995696;28;20136;-52
2022/03/25 03:11:01;;;;;;;120.68;52.05;;;1.70;99.90;;;;;;5011090;28;20038;-52
2022/03/25 03:13:27;;;;;;;117.80;56.38;;;1.60;99.90;;;;;;5011194;28;20030;-51
2022/03/25 03:15:53;;;;;;;129.63;53.65;;;1.60;99.90;;;;;;5011729;28;20034;-51
2022/03/25 03:18:22;;;;;;;125.28;53.67;;;1.60;99.90;;;;;;5011409;28;20121;-52
2022/03/25 03:20:48;;;;;;;138.27;57.08;;;1.60;99.90;;;;;;5011298;28;20026;-51
2022/03/25 03:23:14;;;;;;;122.75;53.22;;;1.60;99.90;;;;;;5011126;28;20108;-52
2022/03/25 03:25:40;;;;;;;135.10;58.78;;;1.50;99.90;;;;;;5011315;28;20029;-51
2022/03/25 03:28:07;;;;;;;121.88;52.88;;;1.50;99.90;;;;;;5011038;28;20037;-51
2022/03/25 03:30:33;;;;;;;;;;;1.60;99.90;;;;;;5011437;28;20621;-53
2022/03/25 03:32:59;;;;;;;122.47;51.35;;;1.40;99.90;;;;;;4992951;28;19909;-53
2022/03/25 03:35:27;;;;;;;132.90;55.88;;;1.40;99.90;;;;;;5011348;28;20029;-52
2022/03/25 03:37:54;;;;;;;127.30;54.22;;;1.50;99.90;;;;;;5010781;28;20029;-51
2022/03/25 03:40:20;;;;;;;;;;;1.40;99.90;;;;;;5011226;28;20105;-51
2022/03/25 03:42:46;;;;;;;126.40;53.30;;;1.40;99.90;;;;;;5010463;28;20004;-53
2022/03/25 03:45:13;;;;;;;121.05;52.13;;;1.40;99.90;;;;;;5011254;28;20026;-51
2022/03/25 03:47:40;;;;;;;128.05;56.72;;;1.40;99.90;;;;;;5010616;28;20076;-50
2022/03/25 03:50:08;;;;;;;130.57;54.10;;;1.40;99.90;;;;;;5010923;28;20076;-52
2022/03/25 03:52:35;;;;;;;132.55;57.42;;;1.40;99.90;;;;;;5010499;28;20100;-52
2022/03/25 03:55:03;;;;;;;144.75;61.00;;;1.30;99.90;;;;;;5010564;28;20033;-53
2022/03/25 03:57:29;;;;;;;139.20;57.72;;;1.20;99.90;;;;;;4995379;28;20631;-51
2022/03/25 03:59:55;;;;;;;135.02;58.33;;;1.10;99.90;;;;;;4990867;28;20085;-53
2022/03/25 04:02:22;;;;;;;129.90;57.40;;;1.20;99.90;;;;;;4990519;28;20034;-53
2022/03/25 04:04:47;;;;;;;116.50;49.90;;;1.20;99.90;;;;;;4991341;28;20034;-51
2022/03/25 04:07:13;;;;;;;115.15;48.50;;;1.10;99.90;;;;;;4975965;28;20026;-52
2022/03/25 04:09:40;;;;;;;98.47;43.92;;;1.10;99.90;;;;;;5006704;28;20118;-52
2022/03/25 04:12:06;;;;;;;119.10;49.20;;;1.00;99.90;;;;;;5007174;28;20112;-52
2022/03/25 04:14:32;;;;;;;98.90;44.53;;;0.90;99.90;;;;;;5009846;28;20072;-51
2022/03/25 04:16:57;;;;;;;113.32;46.75;;;0.80;99.90;;;;;;5009831;28;20477;-52
2022/03/25 04:19:23;;;;;;;102.57;44.60;;;0.80;99.90;;;;;;5010195;28;20068;-52
2022/03/25 04:21:48;;;;;;;96.45;45.42;;;0.80;99.90;;;;;;5008622;28;20021;-51
2022/03/25 04:24:14;;;;;;;94.70;44.55;;;0.80;99.90;;;;;;5010086;28;20034;-52
2022/03/25 04:26:40;;;;;;;100.45;45.38;;;0.80;99.90;;;;;;5010014;28;20018;-53
2022/03/25 04:29:06;;;;;;;104.13;45.38;;;0.90;99.90;;;;;;4992195;28;20053;-51
2022/03/25 04:31:32;;;;;;;96.85;46.85;;;0.90;99.90;;;;;;5009431;28;20205;-52
2022/03/25 04:33:58;;;;;;;88.22;41.42;;;0.80;99.90;;;;;;4992144;28;20147;-52
2022/03/25 04:36:23;;;;;;;103.13;44.17;;;0.90;99.90;;;;;;5003727;28;20497;-53
2022/03/25 04:38:49;;;;;;;100.95;44.17;;;1.00;99.90;;;;;;4990388;28;20030;-52
2022/03/25 04:41:15;;;;;;;109.18;49.63;;;0.80;99.90;;;;;;4999293;28;20125;-51
2022/03/25 04:43:41;;;;;;;127.15;45.90;;;0.80;99.90;;;;;;5009154;28;20029;-50
2022/03/25 04:46:08;;;;;;;118.82;48.22;;;0.80;99.90;;;;;;5009294;28;20026;-52
2022/03/25 04:48:33;;;;;;;;;;;0.80;99.90;;;;;;5009881;28;20037;-49
2022/03/25 04:50:59;;;;;;;;;;;0.80;99.90;;;;;;5009622;28;20430;-52
2022/03/25 04:53:25;;;;;;;;;;;0.90;99.90;;;;;;5009677;28;19909;-53
2022/03/25 04:55:51;;;;;;;;;;;0.90;99.90;;;;;;5008128;28;19913;-53
2022/03/25 04:58:17;;;;;;;;;;;0.90;99.90;;;;;;4989927;28;19963;-52
2022/03/25 05:00:43;;;;;;;;;;;0.70;99.90;;;;;;4990202;28;19976;-54
2022/03/25 05:03:08;;;;;;;;;;;0.80;99.90;;;;;;4990165;28;19905;-53
2022/03/25 05:05:34;;;;;;;;;;;0.90;99.90;;;;;;4972828;28;19932;-52
2022/03/25 05:08:01;;;;;;;;;;;0.90;99.90;;;;;;4992914;28;19913;-52
2022/03/25 05:10:27;;;;;;;;;;;0.80;99.90;;;;;;4991878;28;19921;-54
2022/03/25 05:12:53;;;;;;;;;;;0.70;99.90;;;;;;5009497;28;19909;-52
2022/03/25 05:15:18;;;;;;;;;;;0.80;99.90;;;;;;4991727;28;19912;-52
2022/03/25 05:17:51;;;;;;;;;;;0.80;99.90;;;;;;4992095;28;19937;-51
2022/03/25 05:20:17;;;;;;;;;;;0.80;99.90;;;;;;5009840;28;19909;-52
2022/03/25 05:22:43;;;;;;;;;;;0.80;99.90;;;;;;5009283;28;19969;-51
2022/03/25 05:25:09;;;;;;;;;;;0.80;99.90;;;;;;5009421;28;20231;-52
2022/03/25 05:27:51;;;;;;;;;;;1.00;99.90;;;;;;5009436;28;19916;-54
2022/03/25 05:30:21;;;;;;;;;;;0.90;99.90;;;;;;5009390;28;19909;-53
2022/03/25 05:32:46;;;;;;;;;;;0.90;99.90;;;;;;5008855;28;19909;-51
2022/03/25 05:35:12;;;;;;;;;;;1.00;99.90;;;;;;5009590;28;20303;-53
2022/03/25 05:37:41;;;;;;;;;;;0.90;99.90;;;;;;5009013;28;20368;-51
2022/03/25 05:40:08;;;;;;;;;;;0.90;99.90;;;;;;5009277;28;19916;-52
2022/03/25 05:42:34;;;;;;;;;;;1.00;99.90;;;;;;5008683;28;19909;-51
2022/03/25 05:45:00;;;;;;;;;;;1.10;99.90;;;;;;5009544;28;19913;-53
2022/03/25 05:47:25;;;;;;;;;;;1.20;99.90;;;;;;5008904;28;20256;-52
2022/03/25 05:49:51;;;;;;;;;;;1.20;99.90;;;;;;5009252;28;19946;-52
2022/03/25 05:52:16;;;;;;;;;;;1.40;99.90;;;;;;5008855;28;20804;-52
2022/03/25 05:54:42;;;;;;;;;;;1.40;99.90;;;;;;5008985;28;20002;-52
2022/03/25 05:57:08;;;;;;;;;;;1.50;99.90;;;;;;4996537;28;19917;-52
2022/03/25 05:59:34;;;;;;;;;;;1.40;99.90;;;;;;4989382;28;19906;-52
2022/03/25 06:02:00;;;;;;;;;;;1.60;99.90;;;;;;4988729;28;19906;-54
2022/03/25 06:04:25;;;;;;;;;;;1.80;99.90;;;;;;4989242;28;19916;-52
2022/03/25 06:06:51;;;;;;;;;;;1.70;99.90;;;;;;4973923;28;19918;-52
2022/03/25 06:09:17;;;;;;;;;;;1.80;99.90;;;;;;5008462;28;19928;-52
2022/03/25 06:11:42;;;;;;;;;;;1.90;99.90;;;;;;5008615;28;20473;-53
2022/03/25 06:14:11;;;;;;;;;;;2.10;99.90;;;;;;5009328;28;19963;-52
2022/03/25 06:16:37;;;;;;;;;;;2.20;99.90;;;;;;5008540;28;20419;-52
2022/03/25 06:19:02;;;;;;;;;;;2.40;99.90;;;;;;5008485;28;19912;-52
2022/03/25 06:21:28;;;;;;;;;;;2.60;99.90;;;;;;5008359;28;19917;-52
2022/03/25 06:23:53;;;;;;;;;;;2.80;99.90;;;;;;5008524;28;19909;-52
2022/03/25 06:26:19;;;;;;;;;;;2.90;99.90;;;;;;5008275;28;20000;-53
2022/03/25 06:28:44;;;;;;;;;;;3.00;99.90;;;;;;5008502;28;20004;-53
2022/03/25 06:31:10;;;;;;;;;;;3.10;99.90;;;;;;5008457;28;20257;-51
2022/03/25 06:33:37;;;;;;;;;;;3.30;99.90;;;;;;5008188;28;20278;-53
2022/03/25 06:36:03;;;;;;;;;;;3.40;99.90;;;;;;5005811;28;19916;-53
2022/03/25 06:38:29;;;;;;;;;;;3.50;99.90;;;;;;4986545;28;19913;-52
2022/03/25 06:40:54;;;;;;;;;;;3.60;99.90;;;;;;4988014;28;20531;-54
2022/03/25 06:43:20;;;;;;;;;;;3.70;99.90;;;;;;4987454;28;19915;-50
2022/03/25 06:45:45;;;;;;;;;;;3.90;99.90;;;;;;4990808;28;19909;-52
2022/03/25 06:48:11;;;;;;;;;;;4.10;99.90;;;;;;4991472;28;19922;-51
2022/03/25 06:50:37;;;;;;;;;;;4.30;99.90;;;;;;4991760;28;19913;-51
2022/03/25 06:53:04;;;;;;;;;;;4.40;99.90;;;;;;4991055;28;20689;-52
2022/03/25 06:55:30;;;;;;;;;;;4.60;99.90;;;;;;4991931;28;19909;-51
2022/03/25 06:57:55;;;;;;;;;;;4.70;99.90;;;;;;4991610;28;19919;-51
2022/03/25 07:00:21;;;;;;;;;;;5.00;99.90;;;;;;4991809;28;20369;-50
2022/03/25 07:02:49;;;;;;;;;;;5.10;99.90;;;;;;4991809;28;19913;-51
2022/03/25 07:05:15;;;;;;;;;;;5.30;99.90;;;;;;4991843;28;20373;-50
2022/03/25 07:07:41;;;;;;;;;;;5.50;99.90;;;;;;4992123;28;19910;-50
2022/03/25 07:10:09;;;;;;;;;;;5.60;99.90;;;;;;4991706;28;19960;-50
2022/03/25 07:12:38;;;;;;;;;;;5.90;99.90;;;;;;4991480;28;19906;-51
2022/03/25 07:15:05;;;;;;;;;;;6.00;99.90;;;;;;4974300;28;19916;-50
2022/03/25 07:17:31;;;;;;;;;;;6.20;99.90;;;;;;4991917;28;19914;-51
2022/03/25 07:19:56;;;;;;;;;;;6.30;99.90;;;;;;4995513;28;19913;-49
2022/03/25 07:22:22;;;;;;;;;;;6.50;99.90;;;;;;4991016;28;20380;-51
2022/03/25 07:24:47;;;;;;;;;;;6.60;99.90;;;;;;4991526;28;20704;-51
2022/03/25 07:27:13;;;;;;;;;;;6.80;99.90;;;;;;4991162;28;19906;-50
2022/03/25 07:29:38;;;;;;;;;;;7.00;99.90;;;;;;4990876;28;19922;-51
2022/03/25 07:32:04;;;;;;;;;;;7.20;99.90;;;;;;4988656;28;19910;-51
2022/03/25 07:34:31;;;;;;;;;;;7.40;99.90;;;;;;4991625;28;20246;-50
2022/03/25 07:36:57;;;;;;;;;;;7.50;99.90;;;;;;4991897;28;19910;-52
2022/03/25 07:39:23;;;;;;;;;;;7.60;99.90;;;;;;4991899;28;20300;-52
2022/03/25 07:41:48;;;;;;;;;;;7.80;99.90;;;;;;4992974;28;19906;-50
2022/03/25 07:44:14;;;;;;;;;;;8.10;99.90;;;;;;4996095;28;20138;-50
2022/03/25 07:46:39;;;;;;;;;;;8.20;99.90;;;;;;4990787;28;19913;-51
2022/03/25 07:49:06;;;;;;;;;;;8.40;99.90;;;;;;4991524;28;19918;-50
2022/03/25 07:51:32;;;;;;;;;;;8.60;99.90;;;;;;5002319;28;19913;-50
2022/03/25 07:53:57;;;;;;;;;;;8.70;99.90;;;;;;5003414;28;20095;-50
2022/03/25 07:56:23;;;;;;;;;;;8.90;99.90;;;;;;4991437;28;20241;-51
2022/03/25 07:58:49;;;;;;;;;;;9.00;99.90;;;;;;4991547;28;19913;-53
2022/03/25 08:01:15;;;;;;;;;;;9.20;99.90;;;;;;4990432;28;19906;-49
2022/03/25 08:03:41;;;;;;;;;;;9.30;98.20;;;;;;4991169;28;19941;-50
2022/03/25 08:06:08;;;;;;;;;;;9.50;96.30;;;;;;4991391;28;19996;-51
2022/03/25 08:08:34;;;;;;;;;;;9.70;95.10;;;;;;4998568;28;19917;-53
2022/03/25 08:11:00;;;;;;;;;;;9.90;92.90;;;;;;5004059;28;19916;-51
2022/03/25 08:13:25;;;;;;;;;;;10.00;93.30;;;;;;5000428;28;20331;-51
2022/03/25 08:15:51;;;;;;;;;;;10.20;89.60;;;;;;4999518;28;19914;-52
2022/03/25 08:18:16;;;;;;;;;;;10.30;86.10;;;;;;5001792;28;19916;-52
2022/03/25 08:20:43;;;;;;;;;;;10.40;83.90;;;;;;4990845;28;20365;-52
2022/03/25 08:23:14;;;;;;;;;;;10.60;83.20;;;;;;4990234;28;19912;-53
2022/03/25 08:28:26;;;;;;;;;;;11.50;82.30;;;;;;4942213;28;20017;-51
2022/03/25 08:30:52;;;;;;;;;;;11.60;80.70;;;;;;4990587;28;20004;-51
2022/03/25 08:33:18;;;;;;;;;;;11.70;74.60;;;;;;4991681;28;20304;-52
2022/03/25 08:35:43;;;;;;;;;;;12.10;76.10;;;;;;5010312;28;19905;-50
2022/03/25 08:38:09;;;;;;;;;;;12.40;70.80;;;;;;5010325;28;19910;-51
2022/03/25 08:40:36;;;;;;;;;;;12.90;69.40;;;;;;5010013;28;20382;-51
2022/03/25 08:43:02;;;;;;;;;;;13.10;65.20;;;;;;4990228;28;19944;-52
2022/03/25 08:45:28;;;;;;;;;;;14.40;62.60;;;;;;4995802;28;19905;-50
2022/03/25 08:47:54;;;;;;;;;;;14.00;62.90;;;;;;4990319;28;19952;-51
2022/03/25 08:50:22;;;;;;;;;;;15.00;60.10;;;;;;4990448;28;20680;-52
2022/03/25 08:52:48;;;;;;;;;;;15.00;59.10;;;;;;4989738;28;19914;-51
2022/03/25 08:55:14;;;;;;;;;;;15.80;57.40;;;;;;4990145;28;19906;-51
2022/03/25 08:57:40;;;;;;;;;;;15.80;55.50;;;;;;4990271;28;19920;-52
2022/03/25 09:00:10;;;;;;;;;;;16.20;55.70;;;;;;4972561;28;19909;-51
2022/03/25 09:02:36;;;;;;;;;;;14.50;53.40;;;;;;4989375;28;19945;-52
2022/03/25 09:05:03;;;;;;;;;;;14.70;53.60;;;;;;4990088;28;19983;-51
2022/03/25 09:07:29;;;;;;;;;;;15.10;54.60;;;;;;4989513;28;20671;-53
2022/03/25 09:09:55;;;;;;;;;;;15.40;55.70;;;;;;4993444;28;20162;-51
2022/03/25 09:12:20;;;;;;;;;;;16.40;53.00;;;;;;4994453;28;20458;-50
2022/03/25 09:14:46;;;;;;;;;;;16.50;52.60;;;;;;4989908;28;19963;-50
2022/03/25 09:17:11;;;;;;;;;;;16.50;51.80;;;;;;4989608;28;20693;-50
2022/03/25 09:19:37;;;;;;;;;;;16.90;50.60;;;;;;4990019;28;19906;-52
2022/03/25 09:22:03;;;;;;;;;;;15.80;48.90;;;;;;4989192;28;19910;-50
2022/03/25 09:24:30;;;;;;;;;;;16.40;51.10;;;;;;4989389;28;19910;-50
2022/03/25 09:26:55;;;;;;;;;;;17.60;50.20;;;;;;4989415;28;19910;-50
2022/03/25 09:29:21;;;;;;;;;;;16.70;49.10;;;;;;4989523;28;20628;-52
2022/03/25 09:31:46;;;;;;;;;;;14.90;51.20;;;;;;4989123;28;20017;-50
2022/03/25 09:36:56;;;;;;;;;;;15.80;52.30;;;;;;5009474;28;20011;-51
2022/03/25 09:39:21;;;;;;;;;;;16.80;52.70;;;;;;5009322;28;19913;-52
2022/03/25 09:41:47;;;;;;;;;;;16.70;50.00;;;;;;5008491;28;19917;-50
2022/03/25 09:44:16;;;;;;;;;;;16.60;49.00;;;;;;5008987;28;20388;-50
2022/03/25 09:46:42;;;;;;;;;;;17.30;49.90;;;;;;5008617;28;19913;-52
2022/03/25 09:49:08;;;;;;;;;;;16.30;47.70;;;;;;5008784;28;19918;-51
2022/03/25 09:51:34;;;;;;;;;;;16.90;51.10;;;;;;5008159;28;19905;-51
2022/03/25 09:53:59;;;;;;;;;;;17.20;48.80;;;;;;5008538;28;19928;-50
2022/03/25 09:56:25;;;;;;;;;;;17.20;48.10;;;;;;4984670;28;19956;-53
2022/03/25 09:58:50;;;;;;;;;;;17.30;48.20;;;;;;4989231;28;19906;-51
2022/03/25 10:01:16;;;;;;;;;;;16.80;48.10;;;;;;4986597;28;20028;-55
2022/03/25 10:03:42;;;;;;;;;;;16.70;49.50;;;;;;4988412;28;19918;-51
2022/03/25 10:06:10;;;;;;;;;;;17.10;50.20;;;;;;4988928;28;20670;-52
2022/03/25 10:08:38;;;;;;;;;;;17.60;48.20;;;;;;4996642;28;20339;-50
2022/03/25 10:11:19;;;;;;;;;;;17.30;48.30;;;;;;5000349;28;19976;-49
2022/03/25 10:13:44;;;;;;;;;;;17.20;48.60;;;;;;4988854;28;19957;-50
2022/03/25 10:16:26;;;;;;;;;;;16.60;48.70;;;;;;4992427;28;20298;-52
2022/03/25 10:18:53;;;;;;;;;;;17.70;50.70;;;;;;4994538;28;19917;-51
2022/03/25 10:21:19;;;;;;;;;;;17.60;47.50;;;;;;4974697;28;19906;-50
2022/03/25 10:23:45;;;;;;;;;;;17.50;46.60;;;;;;4993117;28;19913;-52
2022/03/25 10:26:11;;;;;;;;;;;17.60;47.20;;;;;;5001666;28;20423;-52
2022/03/25 10:28:40;;;;;;;;;;;17.80;45.80;;;;;;5002124;28;19917;-51
2022/03/25 10:31:07;;;;;;;;;;;17.90;47.20;;;;;;4994969;28;20254;-52
2022/03/25 10:33:42;;;;;;;;;;;18.20;47.00;;;;;;5000192;28;20004;-52
2022/03/25 10:36:08;;;;;;;;;;;18.80;46.20;;;;;;5003338;28;19912;-51
2022/03/25 10:38:42;;;;;;;;;;;18.90;45.20;;;;;;5001353;28;20359;-53
2022/03/25 10:41:07;;;;;;;;;;;17.60;45.30;;;;;;4992484;28;19921;-51
2022/03/25 10:43:33;;;;;;;;;;;17.00;46.80;;;;;;4999090;28;19910;-51
2022/03/25 10:45:58;;;;;;;;;;;16.50;47.60;;;;;;4993797;28;20433;-50
2022/03/25 10:48:24;;;;;;;;;;;17.20;48.60;;;;;;4997391;28;20366;-51
2022/03/25 10:50:57;;;;;;;;;;;18.10;47.70;;;;;;5004077;28;19917;-51
2022/03/25 10:53:23;;;;;;;;;;;18.10;47.90;;;;;;5012536;28;19939;-52
2022/03/25 10:55:59;;;;;;;;;;;18.90;48.10;;;;;;5010228;28;20412;-52
2022/03/25 10:58:24;;;;;;;;;;;18.60;46.60;;;;;;4992683;28;19906;-51
2022/03/25 11:00:50;;;;;;;;;;;18.90;46.70;;;;;;4975056;28;19909;-51
2022/03/25 11:03:16;;;;;;;;;;;19.00;45.00;;;;;;5003158;28;20292;-51
2022/03/25 11:08:26;;;;;;;;;;;18.20;45.50;;;;;;4997577;23;19922;-55
2022/03/25 11:10:53;;;;;;;;;;;17.70;45.60;;;;;;4971225;28;20001;-52
2022/03/25 11:13:21;;;;;;;;;;;18.00;45.50;;;;;;4970578;28;19916;-53
2022/03/25 11:15:47;;;;;;;;;;;17.40;45.70;;;;;;4974794;28;19910;-55
2022/03/25 11:18:13;;;;;;;;;;;17.40;47.00;;;;;;4986338;28;20426;-52
2022/03/25 11:20:40;;;;;;;;;;;17.00;46.80;;;;;;4989975;28;20000;-51
2022/03/25 11:23:10;;;;;;;;;;;17.70;48.30;;;;;;4989708;28;19964;-51
2022/03/25 11:25:38;;;;;;;;;;;17.90;46.00;;;;;;4970462;28;19906;-51
2022/03/25 11:28:08;;;;;;;;;;;17.60;45.90;;;;;;4988568;28;20312;-49
2022/03/25 11:30:35;;;;;;;;;;;18.10;47.50;;;;;;4988887;28;19909;-49
2022/03/25 11:33:04;;;;;;;;;;;18.60;45.10;;;;;;4989427;28;19920;-50
2022/03/25 11:35:32;;;;;;;;;;;19.10;44.50;;;;;;4988890;28;19912;-51
2022/03/25 11:38:09;;;;;;;;;;;19.50;43.90;;;;;;4989579;28;19910;-51
2022/03/25 11:40:36;;;;;;;;;;;18.80;43.60;;;;;;4975247;28;19909;-50
2022/03/25 11:43:11;;;;;;;;;;;18.20;44.80;;;;;;4990514;28;20336;-49
2022/03/25 11:45:37;;;;;;;;;;;17.60;45.20;;;;;;4980908;28;19965;-52
2022/03/25 11:48:06;;;;;;;;;;;17.60;45.90;;;;;;4980142;28;19948;-52
2022/03/25 11:50:37;;;;;;;;;;;18.20;46.90;;;;;;4961918;28;19920;-53
2022/03/25 11:53:12;;;;;;;;;;;18.10;46.90;;;;;;4974892;28;19918;-52
2022/03/25 11:55:55;;;;;;;;;;;18.50;47.30;;;;;;4975851;28;19914;-51
2022/03/25 11:58:21;;;;;;;;;;;18.80;47.20;;;;;;4951960;29;19910;-51
2022/03/25 12:00:52;;;;;;;;;;;19.10;46.10;;;;;;4952126;29;19917;-51
2022/03/25 12:03:18;;;;;;;;;;;19.20;46.30;;;;;;4951364;29;19937;-52
2022/03/25 12:06:02;;;;;;;;;;;18.60;44.30;;;;;;4951786;29;19907;-51
2022/03/25 12:08:29;;;;;;;;;;;18.30;45.00;;;;;;4950429;29;19922;-51
2022/03/25 12:10:55;;;;;;;;;;;18.10;46.20;;;;;;4951876;29;19917;-53
2022/03/25 12:13:22;;;;;;;;;;;18.60;48.10;;;;;;4952046;29;20389;-51
2022/03/25 12:15:54;;;;;;;;;;;18.90;46.90;;;;;;4952034;29;20301;-51
2022/03/25 12:18:38;;;;;;;;;;;19.00;46.30;;;;;;4952264;29;19910;-51
2022/03/25 12:21:03;;;;;;;;;;;19.20;45.10;;;;;;4952326;29;20392;-52
2022/03/25 12:23:29;;;;;;;;;;;18.30;44.70;;;;;;4950379;28;19949;-52
2022/03/25 12:25:54;;;;;;;;;;;18.80;46.70;;;;;;4978917;28;19906;-51
2022/03/25 12:28:23;;;;;;;;;;;19.30;46.60;;;;;;4973506;28;19964;-51
2022/03/25 12:30:54;;;;;;;;;;;19.40;45.50;;;;;;4980158;28;19913;-51
2022/03/25 12:33:19;;;;;;;;;;;19.80;46.20;;;;;;4990285;28;19951;-50
2022/03/25 12:35:45;;;;;;;;;;;19.40;43.90;;;;;;4984424;28;19957;-51
2022/03/25 12:38:23;;;;;;;;;;;19.10;44.60;;;;;;4990140;28;19909;-51
2022/03/25 12:40:50;;;;;;;;;;;18.80;45.40;;;;;;4951517;29;19945;-51
2022/03/25 12:43:16;;;;;;;;;;;18.80;46.50;;;;;;4950852;28;20273;-52
2022/03/25 12:45:45;;;;;;;;;;;19.30;46.50;;;;;;4951456;29;20361;-51
2022/03/25 12:48:23;;;;;;;;;;;19.00;44.40;;;;;;4951173;29;20064;-53
2022/03/25 12:50:49;;;;;;;;;;;19.10;47.30;;;;;;4951349;29;19956;-51
2022/03/25 12:53:16;;;;;;;;;;;19.60;46.00;;;;;;4950972;29;19902;-51
2022/03/25 12:55:42;;;;;;;;;;;19.70;45.10;;;;;;4951884;28;19993;-52
2022/03/25 12:58:11;;;;;;;;;;;20.00;46.00;;;;;;4970795;28;19902;-50
2022/03/25 13:00:47;;;;;;;;;;;19.90;44.40;;;;;;4970383;28;19910;-53
2022/03/25 13:03:13;;;;;;;;;;;19.80;44.20;;;;;;4970685;28;20398;-52
2022/03/25 13:05:39;;;;;;;;;;;20.20;45.80;;;;;;4970084;28;19996;-51
2022/03/25 13:08:05;;;;;;;;;;;20.30;45.40;;;;;;4952794;28;20368;-52
2022/03/25 13:10:31;;;;;;;;;;;19.60;44.30;;;;;;4970503;28;19914;-51
2022/03/25 13:13:01;;;;;;;;;;;19.20;43.90;;;;;;4974775;28;19914;-50
2022/03/25 13:15:28;;;;;;;;;;;19.10;45.70;;;;;;4976016;28;19909;-50
2022/03/25 13:17:55;;;;;;;;;;;19.60;46.00;;;;;;4978169;28;19979;-51
2022/03/25 13:20:22;;;;;;;;;;;19.70;45.60;;;;;;4979701;28;19906;-50
2022/03/25 13:22:56;;;;;;;;;;;19.80;45.00;;;;;;4960667;28;19955;-51
2022/03/25 13:25:25;;;;;;;;;;;19.70;44.70;;;;;;4977331;28;20271;-50
2022/03/25 13:27:52;;;;;;;;;;;19.50;46.10;;;;;;4978316;28;19906;-50
2022/03/25 13:30:18;;;;;;;;;;;19.60;45.30;;;;;;4979442;28;19918;-51
2022/03/25 13:32:44;;;;;;;;;;;19.10;44.80;;;;;;4977636;28;19938;-52
2022/03/25 13:35:13;;;;;;;;;;;19.10;44.70;;;;;;4978198;28;19909;-52
2022/03/25 13:37:38;;;;;;;;;;;19.50;46.00;;;;;;4980093;28;19914;-50
2022/03/25 13:40:24;;;;;;;;;;;19.40;45.00;;;;;;4977204;28;19916;-52
2022/03/25 13:42:53;;;;;;;;;;;19.50;45.30;;;;;;4960794;28;19917;-50
2022/03/25 13:45:19;;;;;;;;;;;19.70;44.70;;;;;;4975554;28;20656;-51